createdAt,value
2022-10-02T00:00:00.229Z,16.18
2022-10-02T00:00:34.996Z,16.60
2022-10-02T00:01:12.872Z,16.54
2022-10-02T00:01:44.674Z,15.84
2022-10-02T00:02:22.200Z,16.06
2022-10-02T00:03:01.012Z,16.15
2022-10-02T00:03:35.900Z,16.26
2022-10-02T00:04:12.122Z,16.18
2022-10-02T00:04:47.795Z,16.37
2022-10-02T00:05:23.093Z,16.42
2022-10-02T00:06:05.086Z,16.26
2022-10-02T00:06:40.944Z,16.22
2022-10-02T00:07:13.031Z,16.68
2022-10-02T00:07:44.794Z,16.42
2022-10-02T00:08:23.939Z,16.49
2022-10-02T00:08:59.388Z,16.39
2022-10-02T00:09:38.790Z,16.64
2022-10-02T00:10:16.875Z,16.18
2022-10-02T00:11:02.385Z,16.36
2022-10-02T00:11:41.322Z,16.55
2022-10-02T00:12:15.921Z,16.41
2022-10-02T00:12:50.100Z,16.24
2022-10-02T00:13:42.004Z,16.25
2022-10-02T00:14:15.905Z,16.46
2022-10-02T00:14:48.799Z,16.59
2022-10-02T00:15:24.332Z,16.59
2022-10-02T00:15:56.146Z,16.43
2022-10-02T00:16:33.489Z,16.42
2022-10-02T00:17:06.635Z,16.21
2022-10-02T00:17:40.583Z,16.25
2022-10-02T00:18:14.894Z,15.92
2022-10-02T00:18:47.805Z,15.83
2022-10-02T00:19:19.779Z,16.06
2022-10-02T00:19:55.291Z,16.21
2022-10-02T00:20:31.895Z,16.66
2022-10-02T00:21:15.656Z,16.81
2022-10-02T00:21:50.356Z,16.47
2022-10-02T00:22:26.157Z,16.72
2022-10-02T00:23:05.418Z,16.60
2022-10-02T00:23:41.955Z,16.44
2022-10-02T00:24:17.402Z,16.56
2022-10-02T00:24:57.009Z,16.81
2022-10-02T00:25:28.655Z,16.84
2022-10-02T00:26:00.293Z,17.27
2022-10-02T00:26:47.728Z,17.38
2022-10-02T00:27:19.381Z,16.94
2022-10-02T00:27:54.072Z,16.88
2022-10-02T00:28:25.877Z,16.26
2022-10-02T00:29:17.230Z,16.53
2022-10-02T00:29:51.724Z,17.02
2022-10-02T00:30:23.449Z,17.23
2022-10-02T00:31:03.842Z,17.14
2022-10-02T00:31:59.497Z,17.02
2022-10-02T00:32:34.446Z,16.99
2022-10-02T00:33:12.322Z,17.01
2022-10-02T00:33:51.385Z,17.17
2022-10-02T00:34:23.194Z,17.18
2022-10-02T00:34:58.213Z,16.67
2022-10-02T00:35:39.502Z,16.65
2022-10-02T00:36:29.758Z,16.86
2022-10-02T00:37:13.766Z,16.69
2022-10-02T00:38:17.850Z,16.83
2022-10-02T00:38:49.486Z,16.80
2022-10-02T00:39:36.487Z,16.80
2022-10-02T00:40:13.980Z,16.68
2022-10-02T00:41:14.958Z,16.56
2022-10-02T00:42:05.245Z,16.83
2022-10-02T00:42:59.553Z,17.06
2022-10-02T00:43:36.507Z,16.67
2022-10-02T00:44:26.552Z,16.83
2022-10-02T00:45:21.002Z,16.73
2022-10-02T00:46:17.173Z,17.05
2022-10-02T00:46:57.930Z,16.99
2022-10-02T00:47:45.921Z,16.92
2022-10-02T00:48:56.277Z,16.71
2022-10-02T00:49:36.758Z,16.25
2022-10-02T00:50:24.881Z,16.71
2022-10-02T00:51:15.007Z,16.83
2022-10-02T00:51:55.668Z,16.66
2022-10-02T00:52:29.974Z,16.32
2022-10-02T00:53:25.869Z,16.60
2022-10-02T00:54:16.581Z,17.08
2022-10-02T00:54:57.579Z,16.87
2022-10-02T00:55:29.195Z,16.78
2022-10-02T00:56:01.113Z,16.50
2022-10-02T00:56:41.611Z,16.83
2022-10-02T00:57:40.285Z,16.97
2022-10-02T00:58:28.007Z,17.06
2022-10-02T00:59:11.428Z,17.08
2022-10-02T01:00:02.260Z,17.31
2022-10-02T01:00:33.989Z,16.98
2022-10-02T01:01:10.584Z,17.06
2022-10-02T01:01:50.994Z,17.10
2022-10-02T01:02:32.076Z,16.70
2022-10-02T01:03:13.002Z,16.80
2022-10-02T01:03:53.310Z,16.76
2022-10-02T01:04:31.216Z,16.70
2022-10-02T01:05:04.567Z,16.97
2022-10-02T01:05:36.503Z,17.12
2022-10-02T01:06:08.830Z,17.26
2022-10-02T01:06:40.642Z,17.41
2022-10-02T01:07:12.924Z,17.26
2022-10-02T01:07:46.867Z,17.05
2022-10-02T01:08:19.210Z,17.31
2022-10-02T01:08:52.122Z,17.28
2022-10-02T01:09:24.385Z,17.59
2022-10-02T01:09:56.290Z,17.39
2022-10-02T01:10:28.546Z,17.21
2022-10-02T01:11:00.633Z,17.26
2022-10-02T01:11:38.717Z,17.11
2022-10-02T01:12:10.669Z,17.06
2022-10-02T01:12:42.589Z,16.59
2022-10-02T01:13:14.338Z,16.76
2022-10-02T01:13:46.051Z,16.97
2022-10-02T01:14:17.752Z,17.00
2022-10-02T01:14:49.581Z,16.92
2022-10-02T01:15:23.879Z,17.18
2022-10-02T01:15:57.026Z,17.10
2022-10-02T01:16:28.865Z,17.27
2022-10-02T01:17:01.394Z,16.61
2022-10-02T01:17:34.065Z,16.59
2022-10-02T01:18:06.770Z,16.81
2022-10-02T01:18:38.574Z,16.93
2022-10-02T01:19:28.919Z,17.20
2022-10-02T01:20:04.910Z,17.40
2022-10-02T01:20:45.523Z,17.12
2022-10-02T01:21:20.130Z,16.75
2022-10-02T01:21:58.274Z,16.78
2022-10-02T01:22:29.934Z,16.75
2022-10-02T01:23:08.967Z,16.65
2022-10-02T01:23:40.593Z,16.94
2022-10-02T01:24:22.292Z,16.72
2022-10-02T01:24:55.295Z,16.75
2022-10-02T01:25:27.072Z,16.59
2022-10-02T01:25:59.195Z,16.96
2022-10-02T01:26:31.421Z,16.98
2022-10-02T01:27:03.212Z,17.18
2022-10-02T01:27:39.009Z,16.92
2022-10-02T01:28:11.750Z,16.97
2022-10-02T01:28:43.636Z,17.10
2022-10-02T01:29:15.419Z,16.84
2022-10-02T01:29:51.576Z,16.89
2022-10-02T01:30:23.786Z,17.13
2022-10-02T01:30:59.653Z,17.20
2022-10-02T01:31:32.449Z,17.19
2022-10-02T01:32:04.372Z,16.65
2022-10-02T01:32:38.310Z,16.72
2022-10-02T01:33:10.900Z,17.23
2022-10-02T01:33:43.586Z,17.06
2022-10-02T01:34:15.327Z,16.96
2022-10-02T01:34:47.351Z,16.88
2022-10-02T01:35:20.610Z,16.39
2022-10-02T01:35:52.397Z,16.71
2022-10-02T01:36:24.642Z,16.92
2022-10-02T01:36:57.833Z,17.23
2022-10-02T01:37:30.418Z,17.23
2022-10-02T01:38:04.182Z,17.58
2022-10-02T01:38:36.661Z,17.32
2022-10-02T01:39:08.594Z,17.05
2022-10-02T01:39:40.606Z,17.05
2022-10-02T01:40:24.266Z,16.86
2022-10-02T01:40:57.415Z,16.99
2022-10-02T01:41:29.282Z,16.78
2022-10-02T01:42:01.045Z,16.95
2022-10-02T01:42:34.198Z,16.92
2022-10-02T01:43:10.965Z,16.96
2022-10-02T01:43:50.435Z,16.87
2022-10-02T01:44:22.984Z,16.85
2022-10-02T01:44:54.841Z,16.98
2022-10-02T01:45:31.623Z,17.11
2022-10-02T01:46:03.349Z,17.09
2022-10-02T01:46:53.761Z,17.08
2022-10-02T01:47:31.316Z,17.17
2022-10-02T01:48:09.973Z,17.42
2022-10-02T01:48:50.715Z,16.91
2022-10-02T01:49:22.364Z,16.73
2022-10-02T01:49:55.418Z,16.46
2022-10-02T01:50:32.687Z,16.72
2022-10-02T01:51:10.476Z,17.04
2022-10-02T01:51:54.406Z,16.82
2022-10-02T01:52:45.029Z,16.61
2022-10-02T01:53:34.862Z,16.70
2022-10-02T01:54:09.484Z,16.36
2022-10-02T01:54:56.614Z,16.81
2022-10-02T01:55:36.386Z,16.86
2022-10-02T01:56:26.677Z,16.95
2022-10-02T01:57:16.767Z,16.62
2022-10-02T01:58:06.888Z,16.97
2022-10-02T01:58:56.914Z,16.84
2022-10-02T01:59:31.652Z,17.04
2022-10-02T02:00:20.533Z,17.38
2022-10-02T02:01:10.783Z,16.77
2022-10-02T02:01:54.569Z,16.73
2022-10-02T02:02:31.560Z,16.68
2022-10-02T02:03:18.806Z,16.27
2022-10-02T02:03:56.943Z,16.66
2022-10-02T02:04:51.874Z,16.51
2022-10-02T02:05:26.953Z,16.40
2022-10-02T02:05:58.579Z,16.27
2022-10-02T02:06:31.843Z,16.64
2022-10-02T02:07:10.954Z,16.35
2022-10-02T02:08:06.865Z,16.75
2022-10-02T02:08:47.438Z,16.87
2022-10-02T02:09:32.336Z,16.80
2022-10-02T02:10:04.050Z,16.43
2022-10-02T02:10:42.897Z,16.53
2022-10-02T02:11:16.833Z,16.58
2022-10-02T02:11:54.095Z,16.80
2022-10-02T02:12:45.846Z,16.95
2022-10-02T02:13:28.393Z,17.13
2022-10-02T02:14:05.075Z,16.92
2022-10-02T02:14:39.157Z,16.60
2022-10-02T02:15:19.918Z,17.05
2022-10-02T02:15:59.809Z,16.74
2022-10-02T02:16:43.520Z,17.08
2022-10-02T02:17:19.383Z,16.74
2022-10-02T02:17:55.549Z,16.66
2022-10-02T02:18:33.276Z,17.07
2022-10-02T02:19:08.765Z,17.19
2022-10-02T02:20:10.897Z,17.30
2022-10-02T02:20:50.898Z,16.82
2022-10-02T02:21:27.074Z,16.83
2022-10-02T02:22:00.750Z,17.02
2022-10-02T02:22:44.238Z,17.22
2022-10-02T02:23:17.929Z,17.21
2022-10-02T02:23:50.194Z,17.25
2022-10-02T02:24:43.403Z,17.14
2022-10-02T02:25:18.130Z,16.94
2022-10-02T02:25:55.097Z,17.33
2022-10-02T02:26:28.053Z,16.98
2022-10-02T02:27:01.458Z,16.97
2022-10-02T02:27:35.742Z,17.25
2022-10-02T02:28:10.818Z,17.31
2022-10-02T02:28:46.382Z,17.46
2022-10-02T02:29:19.862Z,17.42
2022-10-02T02:29:52.955Z,17.60
2022-10-02T02:30:25.283Z,17.58
2022-10-02T02:30:58.088Z,17.65
2022-10-02T02:31:35.085Z,17.73
2022-10-02T02:32:10.314Z,17.52
2022-10-02T02:32:45.504Z,17.38
2022-10-02T02:33:19.493Z,17.65
2022-10-02T02:33:59.671Z,17.64
2022-10-02T02:34:33.941Z,17.72
2022-10-02T02:35:07.759Z,17.81
2022-10-02T02:35:41.469Z,17.49
2022-10-02T02:36:16.862Z,17.32
2022-10-02T02:36:51.335Z,17.72
2022-10-02T02:37:25.462Z,17.45
2022-10-02T02:38:02.386Z,17.36
2022-10-02T02:38:37.572Z,17.05
2022-10-02T02:39:14.914Z,17.42
2022-10-02T02:39:49.741Z,17.41
2022-10-02T02:40:24.241Z,17.30
2022-10-02T02:41:09.289Z,16.98
2022-10-02T02:41:43.873Z,17.50
2022-10-02T02:42:18.201Z,17.32
2022-10-02T02:42:56.460Z,17.43
2022-10-02T02:43:31.636Z,17.16
2022-10-02T02:44:06.841Z,17.29
2022-10-02T02:44:41.745Z,17.45
2022-10-02T02:45:25.918Z,17.54
2022-10-02T02:46:01.478Z,17.51
2022-10-02T02:47:04.525Z,17.70
2022-10-02T02:47:40.288Z,17.45
2022-10-02T02:48:17.726Z,17.12
2022-10-02T02:48:52.699Z,17.11
2022-10-02T02:49:26.085Z,17.22
2022-10-02T02:50:03.546Z,17.32
2022-10-02T02:50:39.109Z,17.24
2022-10-02T02:51:15.121Z,17.19
2022-10-02T02:51:47.869Z,17.39
2022-10-02T02:52:22.378Z,17.44
2022-10-02T02:53:10.003Z,17.26
2022-10-02T02:53:43.512Z,17.34
2022-10-02T02:54:21.515Z,16.87
2022-10-02T02:55:02.148Z,17.09
2022-10-02T02:55:35.880Z,17.16
2022-10-02T02:56:09.830Z,17.22
2022-10-02T02:56:42.689Z,17.34
2022-10-02T02:57:15.669Z,17.36
2022-10-02T02:58:09.788Z,17.06
2022-10-02T02:58:46.522Z,17.15
2022-10-02T02:59:19.125Z,17.33
2022-10-02T02:59:52.122Z,17.33
2022-10-02T03:00:24.682Z,17.13
2022-10-02T03:00:56.406Z,17.34
2022-10-02T03:01:28.257Z,17.13
2022-10-02T03:02:01.633Z,17.08
2022-10-02T03:02:33.726Z,17.53
2022-10-02T03:03:05.532Z,17.46
2022-10-02T03:03:37.818Z,17.52
2022-10-02T03:04:13.791Z,17.43
2022-10-02T03:04:45.507Z,17.53
2022-10-02T03:05:18.919Z,17.35
2022-10-02T03:05:57.328Z,17.40
2022-10-02T03:06:31.859Z,17.33
2022-10-02T03:07:05.068Z,17.27
2022-10-02T03:07:36.995Z,17.45
2022-10-02T03:08:14.378Z,17.66
2022-10-02T03:08:47.631Z,17.61
2022-10-02T03:09:20.931Z,17.58
2022-10-02T03:10:15.097Z,17.57
2022-10-02T03:10:53.420Z,17.54
2022-10-02T03:11:25.058Z,17.43
2022-10-02T03:12:15.222Z,17.61
2022-10-02T03:13:07.773Z,17.93
2022-10-02T03:14:01.014Z,18.01
2022-10-02T03:14:38.698Z,18.20
2022-10-02T03:15:25.045Z,18.15
2022-10-02T03:15:56.704Z,18.35
2022-10-02T03:16:46.930Z,18.13
2022-10-02T03:17:30.737Z,17.79
2022-10-02T03:18:29.104Z,17.82
2022-10-02T03:19:20.672Z,18.12
2022-10-02T03:20:08.145Z,18.14
2022-10-02T03:20:42.723Z,17.94
2022-10-02T03:21:37.882Z,17.84
2022-10-02T03:22:15.325Z,18.07
2022-10-02T03:23:05.393Z,18.00
2022-10-02T03:23:46.589Z,17.83
2022-10-02T03:24:27.835Z,17.88
2022-10-02T03:25:03.930Z,17.85
2022-10-02T03:25:42.622Z,17.82
2022-10-02T03:26:18.385Z,18.13
2022-10-02T03:26:54.861Z,18.24
2022-10-02T03:27:34.983Z,18.20
2022-10-02T03:28:50.519Z,18.00
2022-10-02T03:29:20.860Z,18.42
2022-10-02T03:29:55.263Z,18.45
2022-10-02T03:30:28.083Z,18.11
2022-10-02T03:31:00.397Z,18.13
2022-10-02T03:31:34.144Z,18.36
2022-10-02T03:32:07.713Z,18.29
2022-10-02T03:32:40.868Z,17.55
2022-10-02T03:33:14.367Z,17.84
2022-10-02T03:33:46.531Z,17.87
2022-10-02T03:34:18.674Z,18.07
2022-10-02T03:34:50.377Z,18.16
2022-10-02T03:35:23.524Z,18.13
2022-10-02T03:35:55.829Z,18.04
2022-10-02T03:36:27.929Z,18.26
2022-10-02T03:37:00.670Z,18.38
2022-10-02T03:37:32.816Z,18.10
2022-10-02T03:38:08.577Z,18.03
2022-10-02T03:38:41.135Z,17.93
2022-10-02T03:39:24.797Z,18.03
2022-10-02T03:40:05.387Z,18.16
2022-10-02T03:40:37.162Z,18.03
2022-10-02T03:41:08.836Z,17.99
2022-10-02T03:41:40.455Z,17.95
2022-10-02T03:42:13.224Z,17.70
2022-10-02T03:42:44.927Z,17.85
2022-10-02T03:43:23.108Z,17.66
2022-10-02T03:43:54.872Z,17.90
2022-10-02T03:44:27.583Z,18.00
2022-10-02T03:44:59.292Z,18.05
2022-10-02T03:45:50.393Z,18.37
2022-10-02T03:46:22.722Z,18.22
2022-10-02T03:46:54.565Z,18.26
2022-10-02T03:47:26.356Z,18.34
2022-10-02T03:47:58.049Z,18.30
2022-10-02T03:48:29.703Z,18.28
2022-10-02T03:49:01.413Z,18.15
2022-10-02T03:49:33.102Z,17.95
2022-10-02T03:50:05.000Z,17.69
2022-10-02T03:50:36.750Z,17.54
2022-10-02T03:51:08.407Z,17.95
2022-10-02T03:51:40.050Z,17.99
2022-10-02T03:52:21.962Z,18.35
2022-10-02T03:52:54.259Z,18.22
2022-10-02T03:53:30.453Z,18.29
2022-10-02T03:54:02.274Z,18.10
2022-10-02T03:54:35.807Z,18.34
2022-10-02T03:55:18.957Z,18.34
2022-10-02T03:55:50.606Z,17.98
2022-10-02T03:56:31.017Z,18.19
2022-10-02T03:57:08.274Z,18.05
2022-10-02T03:57:40.019Z,18.11
2022-10-02T03:58:16.055Z,18.08
2022-10-02T03:58:50.920Z,18.11
2022-10-02T03:59:45.696Z,18.24
2022-10-02T04:00:21.498Z,18.47
2022-10-02T04:01:02.609Z,18.22
2022-10-02T04:01:37.511Z,18.46
2022-10-02T04:02:17.634Z,18.41
2022-10-02T04:03:03.091Z,18.25
2022-10-02T04:03:36.525Z,18.03
2022-10-02T04:04:12.598Z,18.35
2022-10-02T04:04:49.912Z,18.39
2022-10-02T04:05:41.886Z,18.41
2022-10-02T04:06:19.652Z,18.12
2022-10-02T04:06:53.312Z,18.17
2022-10-02T04:07:29.484Z,18.37
2022-10-02T04:08:09.211Z,18.04
2022-10-02T04:08:47.268Z,17.78
2022-10-02T04:09:22.004Z,17.98
2022-10-02T04:09:53.797Z,17.85
2022-10-02T04:10:25.853Z,17.74
2022-10-02T04:11:08.614Z,17.65
2022-10-02T04:11:49.616Z,17.74
2022-10-02T04:12:28.158Z,17.67
2022-10-02T04:13:09.609Z,18.02
2022-10-02T04:13:48.477Z,18.00
2022-10-02T04:14:39.577Z,17.95
2022-10-02T04:15:14.135Z,17.78
2022-10-02T04:16:03.899Z,18.07
2022-10-02T04:16:40.732Z,18.34
2022-10-02T04:17:32.706Z,18.26
2022-10-02T04:18:08.042Z,18.23
2022-10-02T04:18:44.336Z,18.17
2022-10-02T04:19:22.514Z,18.23
2022-10-02T04:19:59.292Z,17.83
2022-10-02T04:20:35.362Z,17.78
2022-10-02T04:21:13.470Z,17.93
2022-10-02T04:21:45.120Z,18.19
2022-10-02T04:22:25.701Z,18.26
2022-10-02T04:23:02.200Z,17.86
2022-10-02T04:23:37.288Z,17.75
2022-10-02T04:24:14.874Z,18.05
2022-10-02T04:25:02.802Z,18.18
2022-10-02T04:25:37.424Z,17.98
2022-10-02T04:26:16.975Z,18.15
2022-10-02T04:27:07.902Z,18.22
2022-10-02T04:27:39.738Z,18.15
2022-10-02T04:28:15.423Z,18.33
2022-10-02T04:28:51.170Z,18.07
2022-10-02T04:29:25.462Z,17.86
2022-10-02T04:30:02.819Z,17.76
2022-10-02T04:30:34.731Z,17.57
2022-10-02T04:31:14.128Z,17.38
2022-10-02T04:31:48.585Z,17.80
2022-10-02T04:32:29.873Z,17.85
2022-10-02T04:33:15.109Z,17.94
2022-10-02T04:33:46.794Z,17.12
2022-10-02T04:34:18.577Z,17.38
2022-10-02T04:34:50.271Z,17.84
2022-10-02T04:35:28.039Z,17.97
2022-10-02T04:36:08.723Z,18.03
2022-10-02T04:36:43.515Z,18.05
2022-10-02T04:37:27.441Z,17.74
2022-10-02T04:38:17.775Z,18.00
2022-10-02T04:39:12.016Z,18.03
2022-10-02T04:39:54.276Z,18.28
2022-10-02T04:40:29.069Z,18.15
2022-10-02T04:41:12.893Z,18.16
2022-10-02T04:41:47.567Z,18.44
2022-10-02T04:42:19.262Z,18.14
2022-10-02T04:43:07.825Z,18.17
2022-10-02T04:43:42.732Z,18.35
2022-10-02T04:44:33.181Z,18.36
2022-10-02T04:45:07.848Z,18.32
2022-10-02T04:45:42.958Z,18.15
2022-10-02T04:46:17.170Z,18.15
2022-10-02T04:46:51.747Z,18.27
2022-10-02T04:47:32.540Z,18.27
2022-10-02T04:48:34.302Z,18.10
2022-10-02T04:49:21.092Z,18.49
2022-10-02T04:49:52.739Z,18.49
2022-10-02T04:50:41.935Z,18.33
2022-10-02T04:51:25.614Z,17.76
2022-10-02T04:52:05.995Z,17.79
2022-10-02T04:52:40.490Z,18.05
2022-10-02T04:53:30.952Z,18.16
2022-10-02T04:54:08.664Z,17.84
2022-10-02T04:54:46.407Z,17.77
2022-10-02T04:55:38.498Z,17.67
2022-10-02T04:56:20.208Z,17.63
2022-10-02T04:56:57.948Z,18.01
2022-10-02T04:57:41.752Z,17.94
2022-10-02T04:58:13.426Z,18.12
2022-10-02T04:59:00.427Z,18.02
2022-10-02T04:59:49.149Z,17.80
2022-10-02T05:00:22.248Z,17.58
2022-10-02T05:01:01.401Z,17.81
2022-10-02T05:01:45.244Z,18.17
2022-10-02T05:02:35.712Z,17.94
2022-10-02T05:03:11.904Z,17.81
2022-10-02T05:03:51.354Z,17.49
2022-10-02T05:04:32.054Z,17.50
2022-10-02T05:05:22.879Z,17.82
2022-10-02T05:06:07.001Z,18.18
2022-10-02T05:06:57.259Z,17.74
2022-10-02T05:07:43.211Z,18.13
2022-10-02T05:08:38.413Z,17.90
2022-10-02T05:09:12.765Z,18.00
2022-10-02T05:09:56.719Z,17.93
2022-10-02T05:10:36.120Z,17.66
2022-10-02T05:11:07.762Z,17.67
2022-10-02T05:11:39.369Z,17.96
2022-10-02T05:12:19.881Z,17.49
2022-10-02T05:12:54.611Z,17.43
2022-10-02T05:13:32.448Z,17.18
2022-10-02T05:14:22.463Z,17.28
2022-10-02T05:15:07.247Z,17.36
2022-10-02T05:15:38.849Z,17.12
2022-10-02T05:16:32.619Z,17.01
2022-10-02T05:17:06.976Z,17.01
2022-10-02T05:17:41.704Z,16.99
2022-10-02T05:18:31.981Z,16.92
2022-10-02T05:19:14.561Z,17.47
2022-10-02T05:19:55.082Z,17.20
2022-10-02T05:20:53.441Z,17.35
2022-10-02T05:21:43.765Z,17.44
2022-10-02T05:22:23.070Z,17.24
2022-10-02T05:23:04.613Z,16.99
2022-10-02T05:23:56.573Z,17.10
2022-10-02T05:24:39.808Z,16.84
2022-10-02T05:25:29.444Z,17.27
2022-10-02T05:26:19.845Z,16.86
2022-10-02T05:26:51.487Z,16.84
2022-10-02T05:27:23.161Z,16.79
2022-10-02T05:28:10.209Z,17.06
2022-10-02T05:28:50.949Z,17.06
2022-10-02T05:29:34.698Z,17.18
2022-10-02T05:30:06.349Z,17.40
2022-10-02T05:30:50.228Z,17.47
2022-10-02T05:31:34.041Z,17.42
2022-10-02T05:32:05.872Z,17.05
2022-10-02T05:32:55.898Z,17.20
2022-10-02T05:33:48.532Z,17.21
2022-10-02T05:34:32.615Z,17.01
2022-10-02T05:35:04.234Z,17.41
2022-10-02T05:35:48.204Z,17.33
2022-10-02T05:36:27.290Z,17.12
2022-10-02T05:38:10.840Z,17.06
2022-10-02T05:38:59.885Z,16.97
2022-10-02T05:39:33.802Z,16.89
2022-10-02T05:40:14.759Z,16.93
2022-10-02T05:41:01.034Z,16.60
2022-10-02T05:41:53.006Z,17.04
2022-10-02T05:42:32.878Z,17.21
2022-10-02T05:43:07.368Z,17.45
2022-10-02T05:43:39.004Z,17.07
2022-10-02T05:44:18.965Z,17.07
2022-10-02T05:45:01.314Z,16.74
2022-10-02T05:45:35.679Z,17.25
2022-10-02T05:46:13.165Z,16.99
2022-10-02T05:46:49.824Z,16.57
2022-10-02T05:47:31.926Z,16.88
2022-10-02T05:48:12.401Z,16.70
2022-10-02T05:48:46.312Z,16.63
2022-10-02T05:49:20.557Z,16.41
2022-10-02T05:50:06.114Z,16.53
2022-10-02T05:50:37.930Z,16.29
2022-10-02T05:51:23.178Z,16.25
2022-10-02T05:52:04.243Z,16.63
2022-10-02T05:52:45.232Z,16.54
2022-10-02T05:53:16.837Z,16.18
2022-10-02T05:53:48.527Z,16.36
2022-10-02T05:54:29.372Z,16.57
2022-10-02T05:55:19.519Z,16.35
2022-10-02T05:56:12.179Z,16.74
2022-10-02T05:56:47.865Z,16.35
2022-10-02T05:57:38.304Z,16.63
2022-10-02T05:58:22.079Z,17.26
2022-10-02T05:58:57.098Z,17.23
2022-10-02T05:59:35.316Z,16.51
2022-10-02T06:00:16.066Z,16.44
2022-10-02T06:01:00.628Z,16.58
2022-10-02T06:01:36.299Z,17.06
2022-10-02T06:02:17.838Z,17.15
2022-10-02T06:02:57.185Z,17.36
2022-10-02T06:03:33.966Z,17.04
2022-10-02T06:04:17.457Z,17.00
2022-10-02T06:04:54.223Z,17.12
2022-10-02T06:05:29.586Z,16.86
2022-10-02T06:06:01.298Z,17.28
2022-10-02T06:06:36.434Z,17.21
2022-10-02T06:07:10.245Z,16.99
2022-10-02T06:07:43.796Z,16.74
2022-10-02T06:08:17.918Z,16.80
2022-10-02T06:08:53.416Z,17.11
2022-10-02T06:09:33.664Z,16.93
2022-10-02T06:10:05.309Z,17.00
2022-10-02T06:11:03.368Z,17.15
2022-10-02T06:11:46.636Z,17.28
2022-10-02T06:12:41.606Z,17.35
2022-10-02T06:13:20.173Z,17.11
2022-10-02T06:13:55.564Z,17.23
2022-10-02T06:14:33.419Z,16.96
2022-10-02T06:15:08.094Z,17.05
2022-10-02T06:16:00.055Z,17.00
2022-10-02T06:16:38.699Z,16.88
2022-10-02T06:17:13.386Z,17.01
2022-10-02T06:17:57.790Z,17.22
2022-10-02T06:18:33.245Z,17.10
2022-10-02T06:19:25.162Z,16.96
2022-10-02T06:20:08.692Z,17.37
2022-10-02T06:20:50.546Z,17.51
2022-10-02T06:21:25.441Z,17.62
2022-10-02T06:22:01.431Z,17.18
2022-10-02T06:22:36.086Z,16.99
2022-10-02T06:23:11.726Z,17.58
2022-10-02T06:23:46.354Z,17.31
2022-10-02T06:24:25.365Z,17.47
2022-10-02T06:25:12.124Z,17.59
2022-10-02T06:25:49.690Z,17.53
2022-10-02T06:26:27.200Z,17.50
2022-10-02T06:27:03.215Z,17.55
2022-10-02T06:27:47.736Z,17.97
2022-10-02T06:28:26.585Z,17.64
2022-10-02T06:29:03.443Z,17.06
2022-10-02T06:29:40.545Z,17.68
2022-10-02T06:30:14.174Z,17.32
2022-10-02T06:30:47.584Z,17.31
2022-10-02T06:31:29.402Z,17.26
2022-10-02T06:32:27.708Z,17.33
2022-10-02T06:33:02.110Z,17.39
2022-10-02T06:33:33.906Z,17.21
2022-10-02T06:34:07.910Z,17.09
2022-10-02T06:34:39.622Z,17.09
2022-10-02T06:35:12.900Z,17.34
2022-10-02T06:35:59.754Z,17.48
2022-10-02T06:36:31.409Z,17.70
2022-10-02T06:37:11.514Z,17.29
2022-10-02T06:37:57.127Z,17.40
2022-10-02T06:38:44.000Z,17.73
2022-10-02T06:39:15.611Z,17.58
2022-10-02T06:40:05.642Z,17.74
2022-10-02T06:40:37.311Z,17.23
2022-10-02T06:41:20.522Z,17.98
2022-10-02T06:41:57.931Z,17.85
2022-10-02T06:42:50.879Z,17.85
2022-10-02T06:43:22.522Z,17.85
2022-10-02T06:43:54.141Z,18.15
2022-10-02T06:44:28.790Z,18.04
2022-10-02T06:45:06.622Z,18.43
2022-10-02T06:45:50.135Z,18.70
2022-10-02T06:46:24.685Z,18.21
2022-10-02T06:46:59.203Z,18.11
2022-10-02T06:47:49.118Z,17.89
2022-10-02T06:48:40.946Z,17.80
2022-10-02T06:49:36.266Z,18.05
2022-10-02T06:50:16.882Z,17.64
2022-10-02T06:50:54.136Z,17.86
2022-10-02T06:51:35.165Z,17.62
2022-10-02T06:52:19.627Z,18.06
2022-10-02T06:52:54.122Z,18.04
2022-10-02T06:53:34.607Z,17.51
2022-10-02T06:54:17.039Z,17.58
2022-10-02T06:54:58.066Z,17.84
2022-10-02T06:55:32.594Z,17.89
2022-10-02T06:56:22.873Z,18.17
2022-10-02T06:56:57.287Z,18.10
2022-10-02T06:57:38.008Z,18.29
2022-10-02T06:58:24.898Z,17.94
2022-10-02T06:59:15.233Z,17.77
2022-10-02T07:00:14.644Z,18.03
2022-10-02T07:00:55.676Z,18.16
2022-10-02T07:01:30.050Z,18.45
2022-10-02T07:02:11.656Z,18.34
2022-10-02T07:02:46.419Z,18.16
2022-10-02T07:03:18.970Z,18.25
2022-10-02T07:03:53.435Z,18.61
2022-10-02T07:04:41.544Z,18.66
2022-10-02T07:05:31.880Z,18.80
2022-10-02T07:06:06.557Z,19.00
2022-10-02T07:06:58.526Z,18.82
2022-10-02T07:07:30.140Z,18.65
2022-10-02T07:08:01.765Z,18.28
2022-10-02T07:08:34.118Z,18.48
2022-10-02T07:09:24.383Z,18.60
2022-10-02T07:10:14.634Z,18.20
2022-10-02T07:11:12.767Z,18.39
2022-10-02T07:12:09.917Z,18.77
2022-10-02T07:12:51.076Z,18.52
2022-10-02T07:13:45.646Z,18.72
2022-10-02T07:14:36.159Z,19.35
2022-10-02T07:15:11.036Z,19.06
2022-10-02T07:15:42.700Z,19.16
2022-10-02T07:16:20.308Z,19.23
2022-10-02T07:17:10.666Z,19.26
2022-10-02T07:17:42.329Z,19.02
2022-10-02T07:18:23.469Z,19.35
2022-10-02T07:19:01.054Z,19.26
2022-10-02T07:19:38.443Z,19.51
2022-10-02T07:20:12.940Z,19.77
2022-10-02T07:20:47.796Z,19.65
2022-10-02T07:21:46.635Z,18.97
2022-10-02T07:22:42.978Z,19.16
2022-10-02T07:23:13.523Z,19.63
2022-10-02T07:23:51.683Z,19.04
2022-10-02T07:24:26.311Z,19.12
2022-10-02T07:25:16.705Z,18.60
2022-10-02T07:25:54.302Z,18.39
2022-10-02T07:26:25.933Z,19.05
2022-10-02T07:27:10.271Z,19.37
2022-10-02T07:27:42.553Z,19.23
2022-10-02T07:28:24.923Z,19.31
2022-10-02T07:28:56.672Z,19.37
2022-10-02T07:29:28.351Z,18.94
2022-10-02T07:30:26.097Z,19.10
2022-10-02T07:31:09.738Z,19.53
2022-10-02T07:31:47.532Z,19.43
2022-10-02T07:32:20.582Z,19.67
2022-10-02T07:33:02.632Z,19.73
2022-10-02T07:33:54.478Z,19.83
2022-10-02T07:34:29.953Z,19.14
2022-10-02T07:35:04.255Z,19.18
2022-10-02T07:35:51.770Z,19.68
2022-10-02T07:36:35.765Z,19.75
2022-10-02T07:37:14.248Z,19.91
2022-10-02T07:37:51.768Z,19.72
2022-10-02T07:38:43.077Z,19.67
2022-10-02T07:39:31.417Z,19.67
2022-10-02T07:40:12.243Z,19.85
2022-10-02T07:41:02.426Z,19.98
2022-10-02T07:41:37.075Z,19.76
2022-10-02T07:42:16.812Z,19.65
2022-10-02T07:43:00.278Z,19.38
2022-10-02T07:43:51.658Z,19.20
2022-10-02T07:44:40.733Z,19.20
2022-10-02T07:45:29.618Z,18.78
2022-10-02T07:46:10.359Z,19.15
2022-10-02T07:46:59.565Z,19.16
2022-10-02T07:47:40.076Z,19.03
2022-10-02T07:48:11.698Z,19.20
2022-10-02T07:49:12.681Z,19.35
2022-10-02T07:49:47.244Z,19.37
2022-10-02T07:50:25.741Z,19.24
2022-10-02T07:50:57.382Z,19.28
2022-10-02T07:51:47.290Z,19.41
2022-10-02T07:52:31.167Z,19.54
2022-10-02T07:53:02.973Z,19.61
2022-10-02T07:53:39.184Z,19.76
2022-10-02T07:54:34.145Z,19.50
2022-10-02T07:55:25.611Z,19.85
2022-10-02T07:55:57.416Z,20.30
2022-10-02T07:56:29.738Z,20.22
2022-10-02T07:57:30.475Z,20.05
2022-10-02T07:58:16.885Z,20.18
2022-10-02T07:58:51.963Z,19.96
2022-10-02T07:59:23.726Z,20.14
2022-10-02T07:59:59.414Z,20.01
2022-10-02T08:00:33.520Z,19.93
2022-10-02T08:01:09.433Z,19.78
2022-10-02T08:01:42.280Z,20.03
2022-10-02T08:02:32.769Z,19.93
2022-10-02T08:03:12.786Z,19.13
2022-10-02T08:03:54.912Z,19.40
2022-10-02T08:04:36.628Z,19.43
2022-10-02T08:05:19.927Z,19.72
2022-10-02T08:05:54.159Z,20.08
2022-10-02T08:06:25.910Z,19.88
2022-10-02T08:06:59.075Z,19.86
2022-10-02T08:07:31.589Z,19.95
2022-10-02T08:08:06.904Z,19.98
2022-10-02T08:08:41.734Z,20.05
2022-10-02T08:09:19.561Z,19.83
2022-10-02T08:09:52.133Z,19.79
2022-10-02T08:10:26.710Z,19.60
2022-10-02T08:11:11.712Z,19.89
2022-10-02T08:11:49.193Z,20.19
2022-10-02T08:12:28.858Z,20.24
2022-10-02T08:13:05.966Z,20.06
2022-10-02T08:13:41.182Z,20.12
2022-10-02T08:14:25.361Z,20.41
2022-10-02T08:14:59.016Z,19.85
2022-10-02T08:15:33.517Z,20.08
2022-10-02T08:16:06.315Z,20.33
2022-10-02T08:16:54.769Z,20.04
2022-10-02T08:17:32.378Z,19.73
2022-10-02T08:18:33.259Z,19.72
2022-10-02T08:19:04.997Z,20.18
2022-10-02T08:19:43.328Z,20.12
2022-10-02T08:20:29.491Z,19.49
2022-10-02T08:21:02.043Z,19.52
2022-10-02T08:21:35.553Z,19.45
2022-10-02T08:22:10.476Z,19.69
2022-10-02T08:22:48.292Z,19.68
2022-10-02T08:23:34.107Z,19.87
2022-10-02T08:24:10.632Z,19.93